Kivalina, AK (99750)

7:26 PM AKST on January 31, 2015 (GMT -0900)
Kivalina | Change Station
CLOSE
Current Station
Airport
Location: Kivalina,
Elevation: 10 ft
Nearby Weather Stations

Elev 10 ft 67.73 °N, 164.55 °W | Updated 22 minutes ago

Overcast
Overcast
18 °F
Feels Like 5 °F
N
12
Wind Variable Wind from South

Today
High -- | Low -- °F
--% Chance of Precip.
Yesterday
High -- | Low -- °F
Precip. -- in
11:11 AM 5:06 PM
Waxing Gibbous, 93% visible
Pressure 30.54 in
Visibility 8.0 miles
Clouds Scattered Clouds 1400 ft
Overcast 2500 ft
Windchill 5 °F
Dew Point 15 °F
Humidity 88%
Rainfall 0.00 in
Snow Depth Not available.
UV 0 out of 12
Pollen Not available.
Air Quality Not available.
Flu Activity Not available.
SPECI PAVL 010404Z AUTO 17010KT 8SM SCT014 OVC025 M08/M09 A3054 RMK AO2 T10781094 TSNO

More Conditions Fewer Conditions

Pressure 30.54 in
Visibility 8.0 miles
Clouds Scattered Clouds 1400 ft
Overcast 2500 ft
Windchill 5 °F
Dew Point 15 °F
Humidity 88%
Rainfall 0.00 in
Snow Depth Not available.
UV 0 out of 12
Pollen Not available.
Air Quality Not available.
Flu Activity Not available.
SPECI PAVL 010404Z AUTO 17010KT 8SM SCT014 OVC025 M08/M09 A3054 RMK AO2 T10781094 TSNO

More Conditions Fewer Conditions

10-Day Weather Forecast

Almanac

Astronomy

Jan. 31, 2015 Rise Set
Actual Time
Civil Twilight
Nautical Twilight
Astronomical Twilight
Moon
Length of Visible Light
Length of Day
Tomorrow will be .
, % of the Moon is Illuminated

Today's Extremes

State Highs State Lows

Community

WunderPhotos

Upload Photos

1,792,308 photos uploaded!

WunderBlogs® & News

Nearby

Air Quality

  Air Quality AQ Index Pollutant
Not available.

Snow Depth

Station Depth Elevation

Earthquake Activity

City Distance Mag. Time & Date
Minimum magnitude displayed is 2.5.

Coastal Water Temperatures

Place Temperature

Nearby Weather Stations